createdAt,value
2023-03-15T00:01:37.973Z,98930.03
2023-03-15T00:04:39.632Z,98921.06
2023-03-15T00:07:41.504Z,98931.03
2023-03-15T00:10:44.897Z,98923.75
2023-03-15T00:13:47.504Z,98927.03
2023-03-15T00:16:49.715Z,98918.06
2023-03-15T00:19:51.538Z,98922.16
2023-03-15T00:22:53.297Z,98931.84
2023-03-15T00:25:55.410Z,98929.28
2023-03-15T00:28:57.149Z,98921.53
2023-03-15T00:31:59.121Z,98914.72
2023-03-15T00:35:01.739Z,98915.94
2023-03-15T00:38:05.624Z,98895.19
2023-03-15T00:41:10.528Z,98916.09
2023-03-15T00:44:12.750Z,98917.81
2023-03-15T00:47:14.953Z,98917.88
2023-03-15T00:50:16.831Z,98922.19
2023-03-15T00:53:18.503Z,98889.34
2023-03-15T00:56:23.448Z,98907.34
2023-03-15T00:59:25.577Z,98902.72
2023-03-15T01:02:27.297Z,98913.31
2023-03-15T01:05:28.951Z,98909.13
2023-03-15T01:08:31.447Z,98895.31
2023-03-15T01:11:35.080Z,98918.66
2023-03-15T01:14:39.029Z,98910.97
2023-03-15T01:17:42.071Z,98905.78
2023-03-15T01:20:44.956Z,98900.44
2023-03-15T01:23:46.933Z,98900.44
2023-03-15T01:26:48.686Z,98909.03
2023-03-15T01:29:50.576Z,98905.56
2023-03-15T01:32:52.443Z,98908.97
2023-03-15T01:36:07.585Z,98903.88
2023-03-15T01:39:11.292Z,98900.28
2023-03-15T01:42:19.143Z,98905.81
2023-03-15T01:45:58.733Z,98913.09
2023-03-15T01:49:13.724Z,98922.78
2023-03-15T01:52:22.011Z,98912.41
2023-03-15T01:55:35.569Z,98916.78
2023-03-15T01:58:44.015Z,98912.41
2023-03-15T02:01:46.868Z,98913.03
2023-03-15T02:04:55.529Z,98915.03
2023-03-15T02:07:57.445Z,98917.34
2023-03-15T02:11:04.882Z,98912.41
2023-03-15T02:14:08.451Z,98918.28
2023-03-15T02:17:13.321Z,98926.88
2023-03-15T02:20:18.158Z,98922.69
2023-03-15T02:23:22.273Z,98920.16
2023-03-15T02:26:42.029Z,98913.16
2023-03-15T02:29:43.821Z,98914.06
2023-03-15T02:32:46.477Z,98915.66
2023-03-15T02:35:48.534Z,98911.41
2023-03-15T02:38:51.982Z,98924.25
2023-03-15T02:41:57.318Z,98922.94
2023-03-15T02:45:02.641Z,98939.56
2023-03-15T02:48:06.611Z,98950.00
2023-03-15T02:51:17.502Z,98934.59
2023-03-15T02:54:19.184Z,98949.78
2023-03-15T02:57:21.065Z,98946.38
2023-03-15T03:00:22.928Z,98958.69
2023-03-15T03:03:27.588Z,98951.84
2023-03-15T03:06:29.382Z,98953.94
2023-03-15T03:09:31.368Z,98971.13
2023-03-15T03:12:33.767Z,98976.38
2023-03-15T03:15:35.509Z,98989.53
2023-03-15T03:18:37.499Z,98975.94
2023-03-15T03:21:43.275Z,98977.81
2023-03-15T03:24:46.826Z,98988.38
2023-03-15T03:27:50.873Z,98986.03
2023-03-15T03:30:53.998Z,98996.91
2023-03-15T03:33:57.177Z,98989.22
2023-03-15T03:36:59.628Z,98987.81
2023-03-15T03:40:18.238Z,98988.03
2023-03-15T03:43:20.302Z,98987.38
2023-03-15T03:46:22.191Z,98986.06
2023-03-15T03:49:27.354Z,98989.75
2023-03-15T03:52:29.102Z,98987.25
2023-03-15T03:55:38.931Z,99002.13
2023-03-15T03:58:41.511Z,98992.38
2023-03-15T04:01:51.346Z,98987.91
2023-03-15T04:04:53.668Z,98980.94
2023-03-15T04:07:56.384Z,98987.06
2023-03-15T04:10:59.423Z,98977.66
2023-03-15T04:14:04.277Z,98977.41
2023-03-15T04:17:06.338Z,98982.78
2023-03-15T04:20:11.870Z,98988.16
2023-03-15T04:23:19.188Z,98995.47
2023-03-15T04:26:36.217Z,98997.25
2023-03-15T04:29:58.184Z,98991.72
2023-03-15T04:33:20.210Z,99007.38
2023-03-15T04:36:42.773Z,99000.13
2023-03-15T04:40:07.199Z,99003.53
2023-03-15T04:43:27.534Z,98987.44
2023-03-15T04:46:47.822Z,99016.63
2023-03-15T04:50:05.440Z,99023.50
2023-03-15T04:53:15.051Z,99027.84
2023-03-15T04:56:26.104Z,99033.81
2023-03-15T04:59:57.304Z,99040.09
2023-03-15T05:03:02.132Z,99026.53
2023-03-15T05:06:20.937Z,99043.88
2023-03-15T05:09:39.774Z,99064.97
2023-03-15T05:13:14.231Z,99068.72
2023-03-15T05:16:39.323Z,99072.47
2023-03-15T05:19:51.787Z,99077.09
2023-03-15T05:23:11.936Z,99097.44
2023-03-15T05:26:46.596Z,99080.34
2023-03-15T05:30:08.319Z,99079.25
2023-03-15T05:33:29.292Z,99081.81
2023-03-15T05:36:53.213Z,99079.34
2023-03-15T05:40:21.338Z,99082.94
2023-03-15T05:43:45.792Z,99101.97
2023-03-15T05:47:07.639Z,99108.81
2023-03-15T05:50:33.254Z,99094.28
2023-03-15T05:54:01.314Z,99092.28
2023-03-15T05:57:20.761Z,99107.81
2023-03-15T06:00:49.329Z,99108.81
2023-03-15T06:04:06.115Z,99101.00
2023-03-15T06:07:09.579Z,99111.31
2023-03-15T06:10:11.801Z,99115.56
2023-03-15T06:13:14.485Z,99112.22
2023-03-15T06:16:17.073Z,99115.69
2023-03-15T06:19:22.570Z,99117.25
2023-03-15T06:22:24.717Z,99124.22
2023-03-15T06:25:33.383Z,99130.22
2023-03-15T06:28:35.461Z,99128.38
2023-03-15T06:31:37.322Z,99142.22
2023-03-15T06:34:43.398Z,99142.44
2023-03-15T06:37:46.054Z,99145.47
2023-03-15T06:40:47.894Z,99141.69
2023-03-15T06:43:49.807Z,99154.81
2023-03-15T06:46:51.599Z,99154.34
2023-03-15T06:49:54.460Z,99155.56
2023-03-15T06:52:57.932Z,99161.78
2023-03-15T06:56:00.135Z,99150.97
2023-03-15T06:59:01.957Z,99164.88
2023-03-15T07:02:03.760Z,99171.88
2023-03-15T07:05:06.072Z,99157.84
2023-03-15T07:08:07.843Z,99178.63
2023-03-15T07:11:09.673Z,99195.50
2023-03-15T07:14:11.570Z,99205.97
2023-03-15T07:17:13.428Z,99213.25
2023-03-15T07:20:15.261Z,99199.75
2023-03-15T07:23:17.176Z,99224.03
2023-03-15T07:26:18.931Z,99210.31
2023-03-15T07:29:21.810Z,99212.81
2023-03-15T07:32:23.775Z,99213.16
2023-03-15T07:35:25.894Z,99222.84
2023-03-15T07:38:31.202Z,99214.19
2023-03-15T07:41:33.030Z,99223.78
2023-03-15T07:44:57.273Z,99237.97
2023-03-15T07:47:59.155Z,99229.34
2023-03-15T07:51:01.072Z,99236.59
2023-03-15T07:54:03.662Z,99229.88
2023-03-15T07:57:05.522Z,99212.78
2023-03-15T08:00:09.215Z,99235.59
2023-03-15T08:03:13.906Z,99251.31
2023-03-15T08:06:15.613Z,99244.44
2023-03-15T08:09:17.431Z,99246.38
2023-03-15T08:12:19.179Z,99253.50
2023-03-15T08:15:20.991Z,99229.44
2023-03-15T08:18:22.892Z,99247.22
2023-03-15T08:21:24.631Z,99239.88
2023-03-15T08:24:27.183Z,99236.25
2023-03-15T08:27:28.916Z,99233.91
2023-03-15T08:30:30.822Z,99242.50
2023-03-15T08:33:33.032Z,99255.69
2023-03-15T08:36:34.893Z,99266.28
2023-03-15T08:39:36.656Z,99239.81
2023-03-15T08:42:38.823Z,99300.56
2023-03-15T08:45:59.708Z,99271.13
2023-03-15T08:49:02.934Z,99276.53
2023-03-15T08:52:05.024Z,99292.03
2023-03-15T08:55:07.624Z,99303.31
2023-03-15T08:58:09.368Z,99288.34
2023-03-15T09:01:12.572Z,99315.41
2023-03-15T09:04:14.317Z,99298.03
2023-03-15T09:07:16.117Z,99316.41
2023-03-15T09:10:18.224Z,99302.16
2023-03-15T09:13:20.037Z,99328.88
2023-03-15T09:16:21.800Z,99323.88
2023-03-15T09:19:23.894Z,99331.81
2023-03-15T09:22:38.599Z,99333.69
2023-03-15T09:25:41.939Z,99345.03
2023-03-15T09:28:43.763Z,99335.50
2023-03-15T09:31:45.524Z,99350.50
2023-03-15T09:34:47.366Z,99350.53
2023-03-15T09:37:50.396Z,99367.81
2023-03-15T09:40:58.127Z,99370.47
2023-03-15T09:44:27.630Z,99371.25
2023-03-15T09:47:41.070Z,99360.34
2023-03-15T09:51:08.279Z,99381.44
2023-03-15T09:54:18.718Z,99396.31
2023-03-15T09:57:33.498Z,99391.16
2023-03-15T10:00:43.800Z,99388.63
2023-03-15T10:03:53.462Z,99401.63
2023-03-15T10:07:01.044Z,99395.81
2023-03-15T10:10:04.995Z,99410.59
2023-03-15T10:13:18.150Z,99411.66
2023-03-15T10:16:37.219Z,99429.91
2023-03-15T10:19:51.039Z,99432.63
2023-03-15T10:22:56.593Z,99435.28
2023-03-15T10:25:58.499Z,99452.69
2023-03-15T10:29:02.775Z,99445.06
2023-03-15T10:32:06.171Z,99443.41
2023-03-15T10:35:16.955Z,99449.56
2023-03-15T10:38:21.295Z,99457.31
2023-03-15T10:41:41.288Z,99461.59
2023-03-15T10:44:43.036Z,99464.22
2023-03-15T10:47:50.477Z,99466.88
2023-03-15T10:50:58.999Z,99460.03
2023-03-15T10:54:21.125Z,99474.69
2023-03-15T10:57:28.058Z,99484.34
2023-03-15T11:00:36.428Z,99483.56
2023-03-15T11:03:38.725Z,99487.00
2023-03-15T11:06:44.565Z,99493.88
2023-03-15T11:09:53.381Z,99493.88
2023-03-15T11:13:22.043Z,99511.19
2023-03-15T11:16:23.899Z,99495.69
2023-03-15T11:19:32.342Z,99507.84
2023-03-15T11:22:34.083Z,99516.66
2023-03-15T11:25:35.937Z,99516.75
2023-03-15T11:28:48.542Z,99522.03
2023-03-15T11:31:51.465Z,99516.19
2023-03-15T11:35:02.485Z,99532.69
2023-03-15T11:38:18.590Z,99539.72
2023-03-15T11:41:44.655Z,99542.34
2023-03-15T11:44:50.468Z,99545.03
2023-03-15T11:48:01.616Z,99534.72
2023-03-15T11:51:06.115Z,99507.97
2023-03-15T11:54:13.640Z,99549.44
2023-03-15T11:57:36.401Z,99551.97
2023-03-15T12:00:38.105Z,99563.31
2023-03-15T12:03:44.608Z,99565.81
2023-03-15T12:06:46.512Z,99573.63
2023-03-15T12:10:03.663Z,99567.47
2023-03-15T12:13:19.573Z,99570.91
2023-03-15T12:16:23.011Z,99563.94
2023-03-15T12:19:26.210Z,99573.38
2023-03-15T12:22:33.923Z,99549.25
2023-03-15T12:25:52.641Z,99575.97
2023-03-15T12:28:59.216Z,99569.09
2023-03-15T12:32:04.055Z,99572.63
2023-03-15T12:35:17.620Z,99559.56
2023-03-15T12:38:22.924Z,99576.84
2023-03-15T12:41:48.373Z,99557.06
2023-03-15T12:44:50.248Z,99583.72
2023-03-15T12:47:52.108Z,99591.53
2023-03-15T12:51:00.785Z,99582.88
2023-03-15T12:54:04.152Z,99580.22
2023-03-15T12:57:06.907Z,99589.66
2023-03-15T13:00:18.801Z,99587.97
2023-03-15T13:03:22.410Z,99594.00
2023-03-15T13:06:43.397Z,99595.78
2023-03-15T13:10:15.417Z,99577.84
2023-03-15T13:13:53.796Z,99604.75
2023-03-15T13:17:17.379Z,99605.69
2023-03-15T13:20:31.329Z,99611.94
2023-03-15T13:23:37.252Z,99597.47
2023-03-15T13:26:53.475Z,99612.31
2023-03-15T13:29:56.377Z,99605.44
2023-03-15T13:33:28.157Z,99603.75
2023-03-15T13:36:53.762Z,99607.22
2023-03-15T13:40:12.955Z,99609.88
2023-03-15T13:43:14.787Z,99598.69
2023-03-15T13:46:19.096Z,99610.00
2023-03-15T13:49:22.162Z,99614.34
2023-03-15T13:52:24.071Z,99589.13
2023-03-15T13:55:32.679Z,99606.38
2023-03-15T13:58:38.466Z,99592.44
2023-03-15T14:01:42.542Z,99598.41
2023-03-15T14:04:50.990Z,99598.41
2023-03-15T14:08:03.243Z,99590.63
2023-03-15T14:11:07.004Z,99595.59
2023-03-15T14:14:23.269Z,99592.13
2023-03-15T14:17:29.010Z,99599.09
2023-03-15T14:21:00.037Z,99590.41
2023-03-15T14:24:06.651Z,99593.97
2023-03-15T14:27:21.237Z,99599.16
2023-03-15T14:30:25.716Z,99589.56
2023-03-15T14:33:39.687Z,99584.56
2023-03-15T14:36:44.720Z,99604.50
2023-03-15T14:39:46.471Z,99604.50
2023-03-15T14:42:50.153Z,99603.56
2023-03-15T14:45:51.985Z,99605.47
2023-03-15T14:48:53.810Z,99610.59
2023-03-15T14:52:05.127Z,99601.06
2023-03-15T14:55:09.784Z,99607.91
2023-03-15T14:58:14.804Z,99596.72
2023-03-15T15:01:26.793Z,99598.31
2023-03-15T15:04:39.001Z,99471.69
2023-03-15T15:07:41.528Z,99545.03
2023-03-15T15:10:46.921Z,99622.69
2023-03-15T15:13:48.951Z,99625.31
2023-03-15T15:16:57.094Z,99625.22
2023-03-15T15:19:58.890Z,99628.72
2023-03-15T15:23:01.413Z,99631.38
2023-03-15T15:26:05.600Z,99629.63
2023-03-15T15:29:09.723Z,99639.22
2023-03-15T15:32:11.396Z,99614.22
2023-03-15T15:35:15.646Z,99621.97
2023-03-15T15:38:17.406Z,99622.88
2023-03-15T15:41:23.923Z,99661.66
2023-03-15T15:44:27.015Z,99672.91
2023-03-15T15:47:28.963Z,99670.31
2023-03-15T15:50:30.644Z,99683.44
2023-03-15T15:53:33.413Z,99664.28
2023-03-15T15:56:40.100Z,99659.25
2023-03-15T15:59:41.848Z,99674.00
2023-03-15T16:02:43.982Z,99662.78
2023-03-15T16:05:45.957Z,99702.63
2023-03-15T16:08:50.786Z,99697.47
2023-03-15T16:11:52.635Z,99681.16
2023-03-15T16:14:54.828Z,99709.72
2023-03-15T16:17:56.684Z,99718.38
2023-03-15T16:20:59.656Z,99708.94
2023-03-15T16:24:08.903Z,99729.78
2023-03-15T16:27:15.689Z,99726.28
2023-03-15T16:30:23.624Z,99705.66
2023-03-15T16:33:25.665Z,99713.38
2023-03-15T16:36:28.539Z,99717.97
2023-03-15T16:39:31.607Z,99767.34
2023-03-15T16:42:33.655Z,99772.56
2023-03-15T16:46:01.254Z,99769.13
2023-03-15T16:49:03.963Z,99785.66
2023-03-15T16:52:07.872Z,99797.06
2023-03-15T16:55:14.234Z,99797.97
2023-03-15T16:58:19.112Z,99794.53
2023-03-15T17:01:20.972Z,99779.03
2023-03-15T17:04:22.792Z,99791.13
2023-03-15T17:07:32.913Z,99799.81
2023-03-15T17:10:34.752Z,99803.31
2023-03-15T17:13:40.813Z,99800.69
2023-03-15T17:16:42.737Z,99816.28
2023-03-15T17:19:44.853Z,99786.91
2023-03-15T17:22:46.605Z,99802.47
2023-03-15T17:25:49.273Z,99781.81
2023-03-15T17:28:51.191Z,99818.13
2023-03-15T17:31:53.167Z,99858.03
2023-03-15T17:34:59.021Z,99856.31
2023-03-15T17:38:03.270Z,99846.78
2023-03-15T17:41:21.718Z,99851.97
2023-03-15T17:44:23.465Z,99808.59
2023-03-15T17:47:25.260Z,99836.41
2023-03-15T17:50:29.476Z,99859.78
2023-03-15T17:53:31.898Z,99868.44
2023-03-15T17:56:33.670Z,99849.34
2023-03-15T17:59:35.401Z,99875.34
2023-03-15T18:02:40.716Z,99857.19
2023-03-15T18:05:45.563Z,99864.09
2023-03-15T18:08:48.642Z,99872.75
2023-03-15T18:11:50.994Z,99886.69
2023-03-15T18:14:52.805Z,99886.69
2023-03-15T18:17:54.688Z,99898.00
2023-03-15T18:20:56.718Z,99872.00
2023-03-15T18:23:58.442Z,99881.53
2023-03-15T18:27:01.840Z,99881.56
2023-03-15T18:30:04.122Z,99889.31
2023-03-15T18:33:06.439Z,99888.44
2023-03-15T18:36:09.706Z,99892.75
2023-03-15T18:39:11.591Z,99895.34
2023-03-15T18:42:13.435Z,99854.66
2023-03-15T18:45:23.837Z,99884.03
2023-03-15T18:48:39.751Z,99854.66
2023-03-15T18:51:42.507Z,99903.09
2023-03-15T18:54:44.274Z,99903.09
2023-03-15T18:57:46.350Z,99907.38
2023-03-15T19:00:49.141Z,99897.78
2023-03-15T19:03:52.240Z,99904.72
2023-03-15T19:06:53.979Z,99916.88
2023-03-15T19:09:55.701Z,99882.25
2023-03-15T19:13:04.460Z,99918.66
2023-03-15T19:16:06.850Z,99921.25
2023-03-15T19:22:58.115Z,99908.28
2023-03-15T19:26:09.217Z,99901.44
2023-03-15T19:29:11.174Z,99941.28
2023-03-15T19:32:12.935Z,99943.88
2023-03-15T19:35:14.903Z,99938.69
2023-03-15T19:38:17.508Z,99949.09
2023-03-15T19:41:19.337Z,99953.47
2023-03-15T19:44:22.529Z,99935.28
2023-03-15T19:47:24.378Z,99956.97
2023-03-15T19:50:31.052Z,99945.72
2023-03-15T19:53:32.841Z,99963.06
2023-03-15T19:56:34.674Z,99929.25
2023-03-15T19:59:40.010Z,99951.75
2023-03-15T20:02:42.612Z,99976.09
2023-03-15T20:05:44.417Z,99972.59
2023-03-15T20:08:46.232Z,99937.97
2023-03-15T20:11:47.974Z,99980.41
2023-03-15T20:14:49.966Z,99980.41
2023-03-15T20:17:51.940Z,99978.72
2023-03-15T20:20:54.231Z,99974.34
2023-03-15T20:23:56.004Z,99979.53
2023-03-15T20:26:57.800Z,99995.16
2023-03-15T20:30:01.828Z,99996.03
2023-03-15T20:33:03.681Z,100001.22
2023-03-15T20:36:06.446Z,100005.59
2023-03-15T20:39:08.635Z,100000.38
2023-03-15T20:42:10.694Z,100023.78
2023-03-15T20:45:13.837Z,100016.00
2023-03-15T20:48:15.727Z,100003.00
2023-03-15T20:51:17.486Z,100016.84
2023-03-15T20:54:19.168Z,100008.19
2023-03-15T20:57:21.230Z,100021.22
2023-03-15T21:00:23.257Z,99994.34
2023-03-15T21:03:25.332Z,100022.13
2023-03-15T21:06:27.138Z,100019.50
2023-03-15T21:09:28.846Z,100023.84
2023-03-15T21:12:30.666Z,100029.09
2023-03-15T21:15:37.246Z,100043.81
2023-03-15T21:18:39.346Z,100019.47
2023-03-15T21:21:43.881Z,100031.69
2023-03-15T21:24:55.050Z,100034.28
2023-03-15T21:27:58.123Z,99989.22
2023-03-15T21:31:00.199Z,100036.88
2023-03-15T21:34:02.078Z,100022.97
2023-03-15T21:37:04.125Z,100029.94
2023-03-15T21:40:07.058Z,100037.75
2023-03-15T21:43:09.575Z,100022.16
2023-03-15T21:46:14.088Z,100013.50
2023-03-15T21:49:16.012Z,100016.94
2023-03-15T21:52:17.801Z,100036.81
2023-03-15T21:55:20.040Z,100040.34
2023-03-15T21:58:21.861Z,99998.78
2023-03-15T22:01:26.766Z,100033.44
2023-03-15T22:04:28.622Z,100056.88
2023-03-15T22:07:30.401Z,100035.19
2023-03-15T22:10:32.155Z,100045.59
2023-03-15T22:13:34.344Z,100043.00
2023-03-15T22:16:36.409Z,100049.94
2023-03-15T22:19:38.244Z,100054.25
2023-03-15T22:22:40.372Z,100038.63
2023-03-15T22:25:42.307Z,100045.56
2023-03-15T22:28:44.029Z,100049.03
2023-03-15T22:31:45.839Z,100044.72
2023-03-15T22:34:50.366Z,100033.47
2023-03-15T22:37:57.018Z,100048.19
2023-03-15T22:41:03.319Z,100043.81
2023-03-15T22:44:05.197Z,100049.94
2023-03-15T22:47:07.238Z,100045.59
2023-03-15T22:50:11.412Z,100052.53
2023-03-15T22:53:13.179Z,100043.00
2023-03-15T22:56:15.184Z,100050.81
2023-03-15T22:59:17.429Z,100063.84
2023-03-15T23:02:19.264Z,100061.22
2023-03-15T23:05:21.359Z,100053.50
2023-03-15T23:08:24.359Z,100061.28
2023-03-15T23:11:26.081Z,100056.97
2023-03-15T23:14:27.826Z,100052.63
2023-03-15T23:17:29.639Z,100071.69
2023-03-15T23:20:32.471Z,100067.34
2023-03-15T23:23:34.193Z,100069.09
2023-03-15T23:26:37.417Z,100069.06
2023-03-15T23:29:53.319Z,100068.22
2023-03-15T23:32:59.016Z,100065.63
2023-03-15T23:36:02.142Z,100074.31
2023-03-15T23:39:04.612Z,100081.25
2023-03-15T23:42:06.991Z,100074.31
2023-03-15T23:45:09.564Z,100067.38
2023-03-15T23:48:12.530Z,100075.19
2023-03-15T23:51:14.390Z,100070.84
2023-03-15T23:54:16.088Z,100070.88
2023-03-15T23:57:17.805Z,100071.75
